Time;durP1;ratioP1;P1;durP2;ratioP2;P2;SDS_P1;SDS_P2;PMS_P1;PMS_P2;Temp;Humidity;BMP_temperature;BMP_pressure;BME280_temperature;BME280_humidity;BME280_pressure;Samples;Min_cycle;Max_cycle;Signal;HPM_P1;HPM_P2
2021/09/06 00:00:23;;;;;;;5.50;3.87;;;15.00;1.00;;;;;;5058000;28;20486;-76
2021/09/06 00:02:50;;;;;;;5.50;4.30;;;15.00;1.00;;;;;;5042785;28;20472;-78
2021/09/06 00:05:17;;;;;;;6.03;4.70;;;15.00;1.00;;;;;;5055083;28;21082;-80
2021/09/06 00:07:45;;;;;;;4.93;4.30;;;14.90;1.00;;;;;;5048717;28;20536;-80
2021/09/06 00:10:31;;;;;;;4.97;3.90;;;14.90;1.00;;;;;;5056108;28;20488;-78
2021/09/06 00:12:58;;;;;;;6.33;4.43;;;14.90;1.00;;;;;;5060352;28;20469;-79
2021/09/06 00:15:25;;;;;;;5.13;4.57;;;14.80;1.00;;;;;;5073546;28;20437;-78
2021/09/06 00:17:52;;;;;;;5.07;4.57;;;14.80;1.00;;;;;;5078509;28;20544;-77
2021/09/06 00:20:19;;;;;;;5.53;4.90;;;14.80;1.00;;;;;;5076860;27;20444;-79
2021/09/06 00:22:45;;;;;;;6.13;4.00;;;14.70;1.00;;;;;;5081918;28;20522;-76
2021/09/06 00:25:14;;;;;;;4.30;3.80;;;14.80;1.00;;;;;;5079694;27;20467;-79
2021/09/06 00:27:42;;;;;;;5.00;4.00;;;14.70;1.00;;;;;;5061111;28;20488;-77
2021/09/06 00:30:09;;;;;;;5.07;4.50;;;14.70;1.00;;;;;;5059308;28;20503;-79
2021/09/06 00:32:36;;;;;;;4.90;3.87;;;14.70;1.00;;;;;;5061704;28;20643;-79
2021/09/06 00:35:03;;;;;;;5.53;4.47;;;14.70;1.00;;;;;;5061929;28;20998;-78
2021/09/06 00:37:31;;;;;;;5.80;4.63;;;14.70;1.00;;;;;;5059740;28;21000;-78
2021/09/06 00:39:58;;;;;;;10.60;4.40;;;14.60;1.00;;;;;;5066146;28;20476;-78
2021/09/06 00:42:25;;;;;;;6.20;4.60;;;14.60;1.00;;;;;;5065891;28;20436;-79
2021/09/06 00:44:53;;;;;;;5.33;3.80;;;14.50;1.00;;;;;;5073894;28;20477;-78
2021/09/06 00:47:20;;;;;;;4.47;4.07;;;14.50;1.00;;;;;;5085321;27;20467;-78
2021/09/06 00:49:46;;;;;;;5.40;4.13;;;14.50;1.00;;;;;;5087932;27;20479;-80
2021/09/06 00:52:13;;;;;;;5.53;4.33;;;14.50;1.00;;;;;;5087535;27;20495;-77
2021/09/06 00:54:40;;;;;;;4.30;3.70;;;14.50;1.00;;;;;;5081100;27;20425;-78
2021/09/06 00:57:06;;;;;;;5.50;4.80;;;14.50;1.00;;;;;;5080551;27;20475;-78
2021/09/06 00:59:33;;;;;;;4.43;3.73;;;14.50;1.00;;;;;;5070016;27;20398;-77
2021/09/06 01:02:02;;;;;;;4.97;4.20;;;14.50;1.00;;;;;;5079405;27;20471;-78
2021/09/06 01:04:28;;;;;;;4.40;4.00;;;14.40;1.00;;;;;;5080595;28;20416;-78
2021/09/06 01:06:55;;;;;;;4.80;4.20;;;14.40;1.00;;;;;;5079270;28;20434;-78
2021/09/06 01:09:22;;;;;;;5.30;4.27;;;14.30;1.00;;;;;;5082436;27;20432;-79
2021/09/06 01:11:49;;;;;;;4.17;3.77;;;14.30;1.00;;;;;;5082193;28;21253;-79
2021/09/06 01:14:15;;;;;;;5.90;4.50;;;14.30;1.00;;;;;;5081000;27;20416;-79
2021/09/06 01:16:42;;;;;;;5.10;4.23;;;14.30;1.00;;;;;;5081713;28;20523;-79
2021/09/06 01:19:10;;;;;;;7.13;4.77;;;14.30;1.00;;;;;;5081142;27;20436;-79
2021/09/06 01:21:38;;;;;;;4.93;4.43;;;14.20;1.00;;;;;;5083995;27;20439;-80
2021/09/06 01:24:05;;;;;;;4.30;3.90;;;14.20;1.00;;;;;;5085423;27;20430;-79
2021/09/06 01:26:37;;;;;;;5.40;4.10;;;14.20;1.00;;;;;;5088666;27;20463;-81
2021/09/06 01:29:08;;;;;;;4.63;4.10;;;14.20;1.00;;;;;;5085869;27;20433;-79
2021/09/06 01:31:35;;;;;;;5.43;4.30;;;14.10;1.00;;;;;;5087487;27;20471;-78
2021/09/06 01:34:01;;;;;;;4.87;4.30;;;14.10;1.00;;;;;;5087810;27;20458;-79
2021/09/06 01:36:29;;;;;;;7.67;5.00;;;14.10;1.00;;;;;;5082533;27;20396;-78
2021/09/06 01:38:55;;;;;;;4.20;3.73;;;14.00;1.00;;;;;;5082490;27;20621;-78
2021/09/06 01:41:22;;;;;;;5.67;4.83;;;13.90;1.00;;;;;;5078887;28;20440;-78
2021/09/06 01:43:50;;;;;;;5.50;3.90;;;13.90;1.00;;;;;;5079171;28;21008;-78
2021/09/06 01:46:17;;;;;;;6.03;4.47;;;13.90;1.00;;;;;;5077526;27;20424;-79
2021/09/06 01:48:44;;;;;;;5.20;4.37;;;13.90;1.00;;;;;;5073765;28;20432;-78
2021/09/06 01:51:10;;;;;;;4.10;3.60;;;13.80;1.00;;;;;;5073442;27;20496;-79
2021/09/06 01:53:38;;;;;;;5.13;4.30;;;13.90;1.00;;;;;;5045911;28;20475;-79
2021/09/06 01:56:05;;;;;;;5.40;4.77;;;13.90;1.00;;;;;;5056887;28;20476;-80
2021/09/06 01:58:31;;;;;;;5.00;4.43;;;13.80;1.00;;;;;;5055727;28;20499;-79
2021/09/06 02:00:59;;;;;;;5.13;4.23;;;13.80;1.00;;;;;;5057245;28;20438;-79
2021/09/06 02:03:26;;;;;;;5.10;4.10;;;13.80;1.00;;;;;;5053316;28;20542;-79
2021/09/06 02:05:53;;;;;;;4.90;4.40;;;13.70;1.00;;;;;;5057058;28;20532;-78
2021/09/06 02:08:19;;;;;;;6.63;4.80;;;13.70;1.00;;;;;;5052894;28;20423;-80
2021/09/06 02:10:46;;;;;;;5.97;4.10;;;13.60;1.00;;;;;;5054952;28;20471;-79
2021/09/06 02:13:14;;;;;;;5.33;4.80;;;13.60;1.00;;;;;;5059911;28;20407;-79
2021/09/06 02:15:41;;;;;;;6.13;4.80;;;13.60;1.00;;;;;;5054743;28;20444;-80
2021/09/06 02:18:09;;;;;;;7.27;4.30;;;13.60;1.00;;;;;;5055831;28;20583;-80
2021/09/06 02:20:36;;;;;;;5.43;3.80;;;13.50;1.00;;;;;;5067190;28;22006;-78
2021/09/06 02:23:03;;;;;;;5.80;5.03;;;13.50;1.00;;;;;;5081688;28;20429;-77
2021/09/06 02:25:30;;;;;;;5.83;4.67;;;13.50;1.00;;;;;;5069845;28;20462;-77
2021/09/06 02:27:57;;;;;;;6.73;5.00;;;13.50;1.00;;;;;;5076767;28;20538;-78
2021/09/06 02:30:24;;;;;;;5.50;4.50;;;13.60;1.00;;;;;;5041660;28;21294;-79
2021/09/06 02:32:50;;;;;;;5.40;4.53;;;13.60;1.00;;;;;;5049498;28;20514;-80
2021/09/06 02:35:19;;;;;;;6.30;4.43;;;13.50;1.00;;;;;;5054179;28;20490;-78
2021/09/06 02:37:46;;;;;;;5.17;4.67;;;13.50;1.00;;;;;;5052134;28;20452;-79
2021/09/06 02:40:14;;;;;;;6.27;4.80;;;13.50;1.00;;;;;;5055712;28;21020;-78
2021/09/06 02:42:41;;;;;;;4.40;3.80;;;13.50;1.00;;;;;;5052948;28;20494;-79
2021/09/06 02:45:09;;;;;;;7.20;4.83;;;13.50;1.00;;;;;;5056277;28;23019;-80
2021/09/06 02:47:36;;;;;;;5.33;4.60;;;13.50;1.00;;;;;;5053068;28;20546;-79
2021/09/06 02:50:04;;;;;;;10.27;5.47;;;13.40;1.00;;;;;;5057042;28;21020;-80
2021/09/06 02:52:34;;;;;;;6.00;4.63;;;13.40;1.00;;;;;;5052790;28;20421;-80
2021/09/06 02:55:01;;;;;;;5.87;4.80;;;13.40;1.00;;;;;;5055140;28;20518;-78
2021/09/06 02:57:27;;;;;;;7.70;5.40;;;13.40;1.00;;;;;;5057702;28;20417;-78
2021/09/06 02:59:54;;;;;;;6.33;5.03;;;13.30;1.00;;;;;;5059850;28;20431;-79
2021/09/06 03:02:21;;;;;;;5.53;4.70;;;13.30;1.00;;;;;;5056353;28;20424;-79
2021/09/06 03:04:49;;;;;;;5.50;4.80;;;13.30;1.00;;;;;;5055795;28;20494;-79
2021/09/06 03:07:16;;;;;;;5.87;5.00;;;13.20;1.00;;;;;;5053969;28;22761;-78
2021/09/06 03:09:44;;;;;;;6.13;5.13;;;13.20;1.00;;;;;;5059856;28;20475;-78
2021/09/06 03:12:11;;;;;;;6.00;4.97;;;13.20;1.00;;;;;;5035836;28;21463;-79
2021/09/06 03:14:37;;;;;;;5.80;5.10;;;13.20;1.00;;;;;;5060026;28;21523;-79
2021/09/06 03:17:04;;;;;;;6.83;5.30;;;13.10;1.00;;;;;;5041135;28;20951;-78
2021/09/06 03:19:31;;;;;;;7.67;5.37;;;13.10;1.00;;;;;;5051153;28;20482;-79
2021/09/06 03:21:58;;;;;;;6.50;5.00;;;13.10;1.00;;;;;;5053399;28;20432;-79
2021/09/06 03:24:25;;;;;;;9.33;5.57;;;13.00;1.00;;;;;;5054243;28;21026;-79
2021/09/06 03:26:53;;;;;;;8.77;5.50;;;13.00;1.00;;;;;;5051957;28;20567;-79
2021/09/06 03:29:20;;;;;;;8.80;6.30;;;13.00;1.00;;;;;;5056390;28;20466;-80
2021/09/06 03:31:47;;;;;;;6.33;5.73;;;13.00;1.00;;;;;;5059695;28;20733;-78
2021/09/06 03:34:14;;;;;;;9.00;6.60;;;12.90;1.00;;;;;;5075653;28;20469;-77
2021/09/06 03:36:40;;;;;;;6.80;5.23;;;13.00;1.00;;;;;;5075439;28;21162;-78
2021/09/06 03:39:07;;;;;;;6.90;5.50;;;12.90;1.00;;;;;;5057077;28;21058;-78
2021/09/06 03:41:34;;;;;;;8.33;5.57;;;12.90;1.00;;;;;;5060577;28;20432;-78
2021/09/06 03:44:02;;;;;;;8.57;6.30;;;12.90;1.00;;;;;;5054800;28;20468;-79
2021/09/06 03:46:30;;;;;;;7.27;5.93;;;12.80;1.00;;;;;;5055332;28;20464;-79
2021/09/06 03:48:57;;;;;;;6.97;6.27;;;12.80;1.00;;;;;;5054123;28;20452;-79
2021/09/06 03:51:23;;;;;;;10.83;6.13;;;12.80;1.00;;;;;;5056402;28;20486;-79
2021/09/06 03:53:50;;;;;;;8.63;6.00;;;12.70;1.00;;;;;;5052781;28;20405;-79
2021/09/06 03:56:17;;;;;;;7.93;7.10;;;12.70;1.00;;;;;;5054812;28;20408;-79
2021/09/06 03:58:44;;;;;;;6.87;5.90;;;12.70;1.00;;;;;;5051592;28;20509;-78
2021/09/06 04:01:12;;;;;;;7.77;6.17;;;12.70;1.00;;;;;;5057210;28;20643;-80
2021/09/06 04:03:39;;;;;;;6.57;5.87;;;12.80;1.00;;;;;;5060469;28;20491;-79
2021/09/06 04:06:05;;;;;;;7.93;6.17;;;12.70;1.00;;;;;;5040546;28;20455;-78
2021/09/06 04:08:32;;;;;;;7.60;5.70;;;12.70;1.00;;;;;;5050071;28;20483;-78
2021/09/06 04:10:59;;;;;;;9.10;7.57;;;12.60;1.00;;;;;;5056908;28;20447;-77
2021/09/06 04:13:26;;;;;;;7.90;5.87;;;12.60;1.00;;;;;;5056287;28;20452;-77
2021/09/06 04:15:52;;;;;;;9.07;6.87;;;12.60;1.00;;;;;;5052123;28;20543;-79
2021/09/06 04:18:20;;;;;;;9.20;8.20;;;12.60;1.00;;;;;;5051793;28;21449;-81
2021/09/06 04:20:47;;;;;;;6.20;5.47;;;12.60;1.00;;;;;;5056885;28;21696;-79
2021/09/06 04:23:15;;;;;;;6.30;5.67;;;12.60;1.00;;;;;;5059404;28;20473;-81
2021/09/06 04:25:42;;;;;;;6.87;6.27;;;12.60;1.00;;;;;;5048473;28;21357;-83
2021/09/06 04:28:09;;;;;;;10.27;6.40;;;12.60;1.00;;;;;;5049339;28;20436;-82
2021/09/06 04:30:37;;;;;;;6.50;5.80;;;12.60;1.00;;;;;;5062793;28;20451;-86
2021/09/06 04:33:04;;;;;;;16.87;10.43;;;12.60;1.00;;;;;;5066214;28;20578;-85
2021/09/06 04:35:32;;;;;;;11.63;7.60;;;12.60;1.00;;;;;;5052371;28;20448;-82
2021/09/06 04:37:59;;;;;;;8.60;6.47;;;12.60;1.00;;;;;;5057723;28;21022;-83
2021/09/06 04:40:28;;;;;;;12.57;7.70;;;12.60;1.00;;;;;;5070298;28;20455;-83
2021/09/06 04:42:56;;;;;;;8.90;6.47;;;12.60;1.00;;;;;;5060462;27;20495;-83
2021/09/06 04:45:24;;;;;;;8.60;6.83;;;12.60;1.00;;;;;;5069182;27;20467;-80
2021/09/06 04:47:51;;;;;;;6.30;5.70;;;12.60;1.00;;;;;;5072226;28;20457;-83
2021/09/06 04:50:25;;;;;;;6.77;6.13;;;12.60;1.00;;;;;;5039669;28;20424;-83
2021/09/06 04:52:57;;;;;;;8.07;5.80;;;12.60;1.00;;;;;;5056537;28;20459;-84
2021/09/06 04:55:53;;;;;;;9.30;7.13;;;12.60;1.00;;;;;;5059515;28;20460;-83
2021/09/06 04:58:24;;;;;;;9.10;7.10;;;12.60;1.00;;;;;;5043911;28;21041;-83
2021/09/06 05:01:18;;;;;;;11.40;6.70;;;12.60;1.00;;;;;;5062876;28;20455;-84
2021/09/06 05:03:48;;;;;;;8.63;6.30;;;12.60;1.00;;;;;;5050881;28;20503;-85
2021/09/06 05:06:23;;;;;;;8.80;6.83;;;12.60;1.00;;;;;;5060394;28;21286;-83
2021/09/06 05:09:02;;;;;;;10.53;7.30;;;12.60;1.00;;;;;;5062059;28;20456;-84
2021/09/06 05:11:48;;;;;;;9.83;6.73;;;12.60;1.00;;;;;;5065265;28;20481;-83
2021/09/06 05:14:15;;;;;;;8.97;6.33;;;12.80;1.00;;;;;;5046630;28;20471;-83
2021/09/06 05:16:43;;;;;;;9.30;6.73;;;12.80;1.00;;;;;;5054755;28;20464;-86
2021/09/06 05:19:12;;;;;;;7.47;6.63;;;12.80;1.00;;;;;;5070610;28;20464;-86
2021/09/06 05:21:43;;;;;;;7.50;6.57;;;12.80;1.00;;;;;;5054422;28;20480;-84
2021/09/06 05:24:11;;;;;;;10.60;8.23;;;12.80;1.00;;;;;;5068264;28;20456;-81
2021/09/06 05:26:47;;;;;;;8.70;7.80;;;12.80;1.00;;;;;;5048008;28;20446;-81
2021/09/06 05:29:26;;;;;;;6.57;5.97;;;12.80;1.00;;;;;;5066142;28;20446;-80
2021/09/06 05:31:53;;;;;;;7.60;6.90;;;12.90;1.00;;;;;;5046025;28;20476;-79
2021/09/06 05:34:20;;;;;;;7.47;5.90;;;12.90;1.00;;;;;;5059303;28;20552;-81
2021/09/06 05:36:46;;;;;;;7.93;7.13;;;12.90;1.00;;;;;;5075246;28;20461;-80
2021/09/06 05:39:14;;;;;;;6.87;6.17;;;13.00;1.00;;;;;;5074385;28;20459;-78
2021/09/06 05:41:41;;;;;;;9.50;6.83;;;13.10;1.00;;;;;;5069362;28;21291;-79
2021/09/06 05:44:08;;;;;;;8.17;6.53;;;13.20;1.00;;;;;;5073796;28;20566;-77
2021/09/06 05:46:35;;;;;;;7.00;6.30;;;13.30;1.00;;;;;;5076321;28;20465;-81
2021/09/06 05:49:02;;;;;;;11.20;8.20;;;13.30;1.00;;;;;;5059824;28;20436;-82
2021/09/06 05:51:29;;;;;;;6.93;6.33;;;13.40;1.00;;;;;;5091221;27;20499;-80
2021/09/06 05:53:56;;;;;;;7.70;6.63;;;13.40;1.00;;;;;;5095322;27;20396;-79
2021/09/06 05:56:24;;;;;;;9.40;6.80;;;13.50;1.00;;;;;;5084774;27;20409;-81
2021/09/06 05:58:51;;;;;;;7.13;5.80;;;13.50;1.00;;;;;;5087794;27;20455;-81
2021/09/06 06:01:24;;;;;;;9.97;7.70;;;13.50;1.00;;;;;;5075608;28;20435;-84
2021/09/06 06:03:51;;;;;;;26.40;7.93;;;13.60;1.00;;;;;;5073706;28;20440;-82
2021/09/06 06:06:18;;;;;;;10.13;6.93;;;13.60;1.00;;;;;;5076242;28;20468;-82
2021/09/06 06:08:45;;;;;;;7.50;6.63;;;13.50;1.00;;;;;;5058869;28;20567;-83
2021/09/06 06:11:12;;;;;;;9.13;6.87;;;13.50;1.00;;;;;;5069045;28;20556;-82
2021/09/06 06:13:41;;;;;;;9.03;6.00;;;13.60;1.00;;;;;;5098982;27;20503;-83
2021/09/06 06:16:07;;;;;;;7.50;6.13;;;13.70;1.00;;;;;;5093106;27;20418;-84
2021/09/06 06:18:34;;;;;;;7.43;5.93;;;13.80;1.00;;;;;;5095003;27;20534;-83
2021/09/06 06:21:01;;;;;;;7.30;5.93;;;13.80;1.00;;;;;;5089452;27;20582;-84
2021/09/06 06:23:28;;;;;;;7.77;6.67;;;13.90;1.00;;;;;;5072288;28;20559;-83
2021/09/06 06:25:55;;;;;;;16.00;13.77;;;14.00;1.00;;;;;;5068781;28;20505;-84
2021/09/06 06:28:22;;;;;;;9.20;6.20;;;14.00;1.00;;;;;;5058275;28;20452;-84
2021/09/06 06:30:50;;;;;;;11.37;6.73;;;14.00;1.00;;;;;;5057556;28;20483;-84
2021/09/06 06:33:17;;;;;;;10.90;7.97;;;14.10;1.00;;;;;;5055851;28;20451;-83
2021/09/06 06:35:44;;;;;;;9.07;6.43;;;14.20;1.00;;;;;;5053843;28;20502;-83
2021/09/06 06:38:11;;;;;;;10.00;6.40;;;14.20;1.00;;;;;;5072308;28;21707;-82
2021/09/06 06:40:38;;;;;;;8.50;5.80;;;14.30;1.00;;;;;;5054339;28;20549;-82
2021/09/06 06:43:06;;;;;;;6.13;5.63;;;14.30;1.00;;;;;;5052340;28;20462;-83
2021/09/06 06:45:35;;;;;;;8.17;6.03;;;14.40;1.00;;;;;;5072621;28;20464;-83
2021/09/06 06:48:04;;;;;;;7.60;6.17;;;14.40;1.00;;;;;;5071961;28;20456;-84
2021/09/06 06:50:31;;;;;;;7.20;6.20;;;14.50;1.00;;;;;;5069458;28;20539;-83
2021/09/06 06:52:58;;;;;;;7.93;6.83;;;14.60;1.00;;;;;;5051213;28;21328;-82
2021/09/06 06:55:25;;;;;;;8.90;6.63;;;14.60;1.00;;;;;;5056773;28;20447;-83
2021/09/06 06:57:52;;;;;;;8.23;6.23;;;14.80;1.00;;;;;;5075223;28;20459;-82
2021/09/06 07:00:20;;;;;;;7.27;6.50;;;14.80;1.00;;;;;;5076157;28;20713;-84
2021/09/06 07:02:46;;;;;;;7.93;6.53;;;14.90;1.00;;;;;;5090426;27;20456;-83
2021/09/06 07:05:15;;;;;;;5.87;5.27;;;15.00;1.00;;;;;;5087781;27;20870;-81
2021/09/06 07:07:42;;;;;;;6.10;5.50;;;15.10;1.00;;;;;;5068116;27;21444;-84
2021/09/06 07:10:10;;;;;;;10.23;5.90;;;15.10;1.00;;;;;;5067396;28;20447;-84
2021/09/06 07:12:38;;;;;;;7.37;6.67;;;15.20;1.00;;;;;;5049881;28;20448;-82
2021/09/06 07:15:06;;;;;;;9.83;5.43;;;15.30;1.00;;;;;;5063866;28;20455;-84
2021/09/06 07:17:33;;;;;;;5.60;5.10;;;15.40;1.00;;;;;;5059416;28;20446;-83
2021/09/06 07:23:40;;;;;;;7.80;6.30;;;15.60;1.00;;;;;;5056463;28;20413;-82
2021/09/06 07:26:07;;;;;;;6.33;5.27;;;15.70;1.00;;;;;;5063659;28;20426;-82
2021/09/06 07:28:34;;;;;;;9.07;6.00;;;15.80;1.00;;;;;;5064811;28;21469;-82
2021/09/06 07:31:01;;;;;;;6.83;5.93;;;16.00;1.00;;;;;;5072009;28;20422;-83
2021/09/06 07:33:28;;;;;;;9.00;5.50;;;16.20;1.00;;;;;;5064779;28;20446;-82
2021/09/06 07:35:55;;;;;;;6.67;5.97;;;16.30;1.00;;;;;;5064066;28;20450;-81
2021/09/06 07:38:23;;;;;;;6.27;5.67;;;16.40;1.00;;;;;;5063678;28;21079;-81
2021/09/06 07:40:52;;;;;;;9.80;7.37;;;16.50;1.00;;;;;;5063027;28;20648;-82
2021/09/06 07:43:19;;;;;;;7.30;5.80;;;16.60;1.00;;;;;;5063638;28;20465;-82
2021/09/06 07:45:47;;;;;;;7.73;6.00;;;16.70;1.00;;;;;;5065344;28;20555;-83
2021/09/06 07:48:15;;;;;;;8.40;5.93;;;16.90;1.00;;;;;;5062966;28;20464;-83
2021/09/06 07:50:42;;;;;;;9.80;6.13;;;16.90;1.00;;;;;;5062554;28;20455;-81
2021/09/06 07:53:08;;;;;;;7.03;5.23;;;16.90;1.00;;;;;;5060830;28;20442;-82
2021/09/06 07:55:35;;;;;;;6.73;5.63;;;17.00;1.00;;;;;;5065281;28;20543;-82
2021/09/06 07:58:03;;;;;;;7.17;5.70;;;17.10;1.00;;;;;;5045440;28;20449;-83
2021/09/06 08:00:31;;;;;;;7.20;6.37;;;17.20;1.00;;;;;;5047799;28;20454;-84
2021/09/06 08:02:57;;;;;;;6.57;5.87;;;17.30;1.00;;;;;;5066875;28;20466;-83
2021/09/06 08:05:27;;;;;;;9.17;5.90;;;17.40;1.00;;;;;;5078604;27;20398;-82
2021/09/06 08:07:54;;;;;;;7.33;5.40;;;17.50;1.00;;;;;;5083288;27;20433;-82
2021/09/06 08:10:21;;;;;;;6.57;5.83;;;17.60;1.00;;;;;;5064811;27;20477;-83
2021/09/06 08:12:48;;;;;;;11.17;6.70;;;17.80;1.00;;;;;;5058610;28;20450;-84
2021/09/06 08:15:17;;;;;;;7.73;5.60;;;18.00;1.00;;;;;;5058162;28;22123;-84
2021/09/06 08:17:44;;;;;;;5.97;5.07;;;18.00;1.00;;;;;;5058210;28;20506;-84
2021/09/06 08:20:13;;;;;;;7.93;5.40;;;18.10;1.00;;;;;;5055349;28;21341;-84
2021/09/06 08:22:41;;;;;;;6.80;5.73;;;18.20;1.00;;;;;;5056610;28;20454;-84
2021/09/06 08:25:11;;;;;;;6.70;6.00;;;18.20;1.00;;;;;;5053438;28;20562;-81
2021/09/06 08:27:38;;;;;;;7.00;5.70;;;18.10;1.00;;;;;;5056760;28;20484;-81
2021/09/06 08:30:11;;;;;;;7.40;6.07;;;18.20;1.00;;;;;;5062719;28;20470;-82
2021/09/06 08:32:40;;;;;;;6.53;5.77;;;18.30;1.00;;;;;;5057987;28;20538;-83
2021/09/06 08:35:08;;;;;;;14.50;7.20;;;18.50;1.00;;;;;;5060590;28;20619;-82
2021/09/06 08:37:35;;;;;;;14.80;6.80;;;18.70;1.00;;;;;;5040383;28;20527;-84
2021/09/06 08:40:01;;;;;;;9.37;6.60;;;18.80;1.00;;;;;;5057453;28;20487;-82
2021/09/06 08:42:28;;;;;;;8.30;7.23;;;18.80;1.00;;;;;;5041694;28;20946;-83
2021/09/06 08:44:55;;;;;;;8.93;6.93;;;18.80;1.00;;;;;;5059213;28;20471;-82
2021/09/06 08:47:22;;;;;;;13.53;7.93;;;19.00;1.00;;;;;;5052848;28;20449;-82
2021/09/06 08:49:51;;;;;;;9.43;8.13;;;19.10;1.00;;;;;;5052910;28;20644;-82
2021/09/06 08:52:18;;;;;;;11.67;7.77;;;19.30;1.00;;;;;;5056695;28;20439;-82
2021/09/06 08:54:45;;;;;;;8.37;6.90;;;19.50;1.00;;;;;;5058175;28;21289;-82
2021/09/06 08:57:12;;;;;;;8.80;7.90;;;19.60;1.00;;;;;;5053201;28;20459;-82
2021/09/06 08:59:40;;;;;;;7.97;6.13;;;19.70;1.00;;;;;;5052052;28;21053;-81
2021/09/06 09:02:08;;;;;;;8.03;5.93;;;19.80;1.00;;;;;;5054600;28;20468;-80
2021/09/06 09:04:35;;;;;;;9.73;6.87;;;19.80;1.00;;;;;;5049530;28;20444;-81
2021/09/06 09:07:04;;;;;;;8.00;6.10;;;19.90;1.00;;;;;;5035599;28;20452;-83
2021/09/06 09:09:34;;;;;;;7.90;7.10;;;19.90;1.00;;;;;;5046365;28;20486;-81
2021/09/06 09:12:09;;;;;;;8.43;7.10;;;20.00;1.00;;;;;;5037460;28;20490;-80
2021/09/06 09:14:38;;;;;;;6.83;6.23;;;20.20;1.00;;;;;;5075173;27;20395;-82
2021/09/06 09:17:06;;;;;;;8.93;7.87;;;20.20;1.00;;;;;;5085996;27;20416;-82
2021/09/06 09:19:34;;;;;;;10.03;7.40;;;20.40;1.00;;;;;;5048059;28;20441;-82
2021/09/06 09:22:06;;;;;;;9.40;7.77;;;20.90;1.00;;;;;;5053020;28;20500;-83
2021/09/06 09:24:36;;;;;;;9.33;7.57;;;22.10;1.00;;;;;;5035683;28;20483;-83
2021/09/06 09:27:05;;;;;;;9.20;8.27;;;23.60;1.00;;;;;;5058345;28;20477;-83
2021/09/06 09:29:32;;;;;;;11.63;8.40;;;24.90;1.00;;;;;;5051594;28;20416;-83
2021/09/06 09:32:05;;;;;;;9.67;7.83;;;26.10;1.00;;;;;;5052349;28;21212;-84
2021/09/06 09:34:35;;;;;;;12.80;8.50;;;27.00;1.00;;;;;;5054254;28;20490;-85
2021/09/06 09:37:04;;;;;;;10.13;8.77;;;27.80;1.00;;;;;;5034503;28;20439;-84
2021/09/06 09:39:32;;;;;;;10.60;7.87;;;28.20;1.00;;;;;;5054442;28;20470;-83
2021/09/06 09:42:05;;;;;;;8.60;7.80;;;28.70;1.00;;;;;;5056392;28;20447;-82
2021/09/06 09:44:31;;;;;;;9.23;8.33;;;29.50;1.00;;;;;;5058423;28;20510;-82
2021/09/06 09:47:01;;;;;;;12.83;8.93;;;30.20;1.00;;;;;;5058141;28;20566;-84
2021/09/06 09:49:29;;;;;;;10.27;9.07;;;30.20;1.00;;;;;;5058421;28;20419;-82
2021/09/06 09:51:57;;;;;;;10.13;7.97;;;29.70;1.00;;;;;;5034107;28;20996;-82
2021/09/06 09:54:25;;;;;;;10.93;8.60;;;29.40;1.00;;;;;;5054856;28;21306;-82
2021/09/06 09:56:53;;;;;;;9.97;8.27;;;29.80;1.00;;;;;;5062521;28;20564;-81
2021/09/06 09:59:20;;;;;;;11.27;8.50;;;30.30;1.00;;;;;;5053006;28;21116;-83
2021/09/06 10:01:52;;;;;;;11.10;9.20;;;30.70;1.00;;;;;;5053851;28;21302;-84
2021/09/06 10:04:23;;;;;;;9.50;8.60;;;31.10;1.00;;;;;;5054473;28;20496;-82
2021/09/06 10:06:51;;;;;;;8.50;7.20;;;31.50;1.00;;;;;;5058437;28;20463;-82
2021/09/06 10:09:19;;;;;;;9.47;8.20;;;31.80;1.00;;;;;;5051922;28;21245;-82
2021/09/06 10:11:48;;;;;;;10.77;7.63;;;32.50;1.00;;;;;;5053040;28;20447;-84
2021/09/06 10:14:17;;;;;;;10.90;8.70;;;33.10;1.00;;;;;;5059503;28;20500;-83
2021/09/06 10:16:44;;;;;;;8.40;7.50;;;33.60;1.00;;;;;;5036716;28;20463;-82
2021/09/06 10:19:12;;;;;;;9.20;7.53;;;32.80;1.00;;;;;;5056005;28;20448;-82
2021/09/06 10:21:40;;;;;;;8.27;7.37;;;32.40;1.00;;;;;;5050391;28;20534;-83
2021/09/06 10:24:14;;;;;;;8.80;7.77;;;32.40;1.00;;;;;;5082517;27;20434;-83
2021/09/06 10:26:41;;;;;;;10.53;8.10;;;33.00;1.00;;;;;;5067034;28;20592;-82
2021/09/06 10:29:19;;;;;;;9.43;8.03;;;33.10;1.00;;;;;;5045311;28;20420;-82
2021/09/06 10:31:58;;;;;;;8.70;7.90;;;32.70;1.00;;;;;;5046403;28;20478;-83
2021/09/06 10:34:29;;;;;;;9.97;7.50;;;32.40;1.00;;;;;;5063205;28;20419;-82
2021/09/06 10:37:02;;;;;;;9.33;8.33;;;32.90;1.00;;;;;;5055579;28;20455;-82
2021/09/06 10:39:29;;;;;;;10.67;8.70;;;33.30;1.00;;;;;;5053681;28;20503;-82
2021/09/06 10:42:04;;;;;;;10.00;8.13;;;33.60;1.00;;;;;;5040926;28;20644;-82
2021/09/06 10:44:38;;;;;;;13.60;9.50;;;34.40;1.00;;;;;;5057769;28;20455;-82
2021/09/06 10:47:11;;;;;;;12.70;9.77;;;35.00;1.00;;;;;;5058604;28;20488;-83
2021/09/06 10:49:41;;;;;;;8.50;7.60;;;35.40;1.00;;;;;;5065156;28;20448;-82
2021/09/06 10:52:09;;;;;;;9.10;8.20;;;35.60;1.00;;;;;;5064735;28;20461;-83
2021/09/06 10:54:38;;;;;;;9.27;8.23;;;35.60;1.00;;;;;;5046330;28;20461;-82
2021/09/06 10:57:07;;;;;;;9.00;8.20;;;35.70;1.00;;;;;;5062496;28;20466;-82
2021/09/06 10:59:34;;;;;;;10.00;7.97;;;35.50;1.00;;;;;;5057655;28;20440;-80
2021/09/06 11:02:09;;;;;;;9.03;8.13;;;35.30;1.00;;;;;;5060570;28;20935;-82
2021/09/06 11:04:38;;;;;;;11.03;9.53;;;35.20;1.00;;;;;;5063683;28;20450;-86
2021/09/06 11:07:06;;;;;;;8.60;7.80;;;35.10;1.00;;;;;;5073945;28;20447;-86
2021/09/06 11:09:35;;;;;;;9.33;8.53;;;35.20;1.00;;;;;;5050824;28;20451;-86
2021/09/06 11:12:04;;;;;;;9.63;8.70;;;35.50;1.00;;;;;;5066218;28;20593;-85
2021/09/06 11:14:39;;;;;;;9.37;8.53;;;35.70;1.00;;;;;;5072763;27;20526;-83
2021/09/06 11:17:20;;;;;;;9.17;8.27;;;36.10;1.00;;;;;;5070371;28;20419;-82
2021/09/06 11:19:48;;;;;;;10.17;8.73;;;35.70;1.00;;;;;;5050624;28;20467;-84
2021/09/06 11:22:17;;;;;;;10.00;9.13;;;35.60;1.00;;;;;;5073260;28;20574;-83
2021/09/06 11:24:45;;;;;;;10.40;9.50;;;36.00;1.00;;;;;;5074241;28;20962;-85
2021/09/06 11:27:24;;;;;;;9.90;7.97;;;36.40;1.00;;;;;;5058530;28;20463;-82
2021/09/06 11:29:52;;;;;;;9.40;8.60;;;36.80;1.00;;;;;;5074641;28;20558;-84
2021/09/06 11:32:20;;;;;;;10.93;9.63;;;36.70;1.00;;;;;;5075762;28;20455;-84
2021/09/06 11:34:49;;;;;;;11.70;9.70;;;36.50;1.00;;;;;;5071855;28;20481;-83
2021/09/06 11:37:20;;;;;;;10.67;9.57;;;36.30;1.00;;;;;;5083143;28;20512;-88
2021/09/06 11:39:47;;;;;;;13.17;11.37;;;35.40;1.00;;;;;;5088255;27;20458;-82
2021/09/06 11:42:14;;;;;;;12.53;9.33;;;34.60;1.00;;;;;;5086172;27;21365;-83
2021/09/06 11:44:41;;;;;;;10.37;8.53;;;34.40;1.00;;;;;;5073942;28;20519;-82
2021/09/06 11:47:08;;;;;;;10.47;8.90;;;34.40;1.00;;;;;;5077955;28;20471;-83
2021/09/06 11:49:36;;;;;;;9.90;8.43;;;34.50;1.00;;;;;;5089807;27;20443;-84
2021/09/06 11:52:08;;;;;;;9.87;8.87;;;34.90;1.00;;;;;;5087102;27;20424;-87
2021/09/06 11:54:52;;;;;;;10.40;9.30;;;35.10;1.00;;;;;;5090804;27;20399;-83
2021/09/06 11:57:26;;;;;;;9.43;8.53;;;35.30;1.00;;;;;;5072024;27;20419;-83
2021/09/06 11:59:57;;;;;;;10.30;9.10;;;35.50;1.00;;;;;;5092574;27;20434;-83
2021/09/06 12:02:24;;;;;;;10.50;7.67;;;35.40;1.00;;;;;;5086300;27;20420;-81
2021/09/06 12:05:02;;;;;;;10.63;8.50;;;35.30;1.00;;;;;;5070254;27;20416;-82
2021/09/06 12:07:29;;;;;;;10.47;9.47;;;35.40;1.00;;;;;;5089655;27;20960;-82
2021/09/06 12:09:56;;;;;;;9.50;8.50;;;35.70;1.00;;;;;;5087467;27;20440;-78
2021/09/06 12:12:26;;;;;;;12.53;11.33;;;35.80;1.00;;;;;;5090703;27;20534;-83
2021/09/06 12:14:54;;;;;;;9.33;7.70;;;36.10;1.00;;;;;;5092050;27;20484;-83
2021/09/06 12:17:33;;;;;;;8.20;7.50;;;36.20;1.00;;;;;;5091164;27;20435;-83
2021/09/06 12:20:07;;;;;;;8.87;7.63;;;36.10;1.00;;;;;;5088450;27;20420;-82
2021/09/06 12:22:34;;;;;;;8.90;8.10;;;35.50;1.00;;;;;;5069929;27;20468;-83
2021/09/06 12:25:06;;;;;;;9.17;8.27;;;34.80;1.00;;;;;;5087096;27;20442;-84
2021/09/06 12:27:35;;;;;;;11.23;8.50;;;34.80;1.00;;;;;;5088550;27;21066;-83
2021/09/06 12:30:04;;;;;;;9.27;8.37;;;35.40;1.00;;;;;;5089624;27;20430;-84
2021/09/06 12:32:31;;;;;;;9.00;8.20;;;35.80;1.00;;;;;;5059058;27;20559;-84
2021/09/06 12:34:58;;;;;;;10.00;8.70;;;36.40;1.00;;;;;;5087848;27;20384;-84
2021/09/06 12:37:26;;;;;;;9.13;8.30;;;37.10;1.00;;;;;;5089471;27;20441;-84
2021/09/06 12:42:21;;;;;;;10.07;9.17;;;38.10;1.00;;;;;;5148830;27;20509;-84
2021/09/06 12:44:49;;;;;;;8.63;7.93;;;38.00;1.00;;;;;;5146535;27;20486;-84
2021/09/06 12:47:16;;;;;;;10.83;9.17;;;37.80;1.00;;;;;;5153218;27;20474;-84
2021/09/06 12:49:42;;;;;;;9.90;9.00;;;37.60;1.00;;;;;;5144314;27;20453;-86
2021/09/06 12:52:09;;;;;;;9.70;8.80;;;38.10;1.00;;;;;;5146296;27;20430;-84
2021/09/06 12:54:37;;;;;;;11.30;10.33;;;38.60;1.00;;;;;;5130442;27;20402;-83
2021/09/06 12:57:05;;;;;;;10.13;9.20;;;39.30;1.00;;;;;;5139688;27;20449;-86
2021/09/06 12:59:35;;;;;;;8.50;7.70;;;40.00;1.00;;;;;;5122664;27;20423;-86
2021/09/06 13:02:05;;;;;;;9.03;8.20;;;40.40;1.00;;;;;;5122028;28;20428;-88
2021/09/06 13:04:32;;;;;;;9.20;8.40;;;40.70;1.00;;;;;;5128951;27;20446;-85
2021/09/06 13:07:02;;;;;;;8.63;7.73;;;40.70;1.00;;;;;;5122682;27;20498;-85